Time;durP1;ratioP1;P1;durP2;ratioP2;P2;SDS_P1;SDS_P2;PMS_P1;PMS_P2;Temp;Humidity;BMP_temperature;BMP_pressure;BME280_temperature;BME280_humidity;BME280_pressure;Samples;Min_cycle;Max_cycle;Signal;HPM_P1;HPM_P2
2022/05/30 00:01:21;;;;;;;6.78;0.88;;;8.60;99.90;;;;;;5032789;28;20034;-71
2022/05/30 00:03:47;;;;;;;3.75;0.93;;;8.60;99.90;;;;;;5031460;28;20026;-71
2022/05/30 00:06:15;;;;;;;3.75;0.70;;;8.50;99.90;;;;;;5032596;28;20091;-71
2022/05/30 00:08:41;;;;;;;7.75;1.05;;;8.50;99.90;;;;;;5031537;28;20064;-71
2022/05/30 00:11:09;;;;;;;2.90;1.27;;;8.50;99.90;;;;;;5032346;28;20057;-70
2022/05/30 00:13:36;;;;;;;10.05;1.02;;;8.50;99.90;;;;;;5031183;28;20037;-71
2022/05/30 00:16:07;;;;;;;4.68;0.60;;;8.50;99.90;;;;;;5031494;28;20422;-71
2022/05/30 00:18:32;;;;;;;2.72;0.90;;;8.40;99.90;;;;;;5031951;28;20048;-71
2022/05/30 00:20:58;;;;;;;2.42;0.80;;;8.40;99.90;;;;;;5031748;28;20166;-71
2022/05/30 00:23:24;;;;;;;3.83;0.80;;;8.40;99.90;;;;;;5031523;28;20440;-72
2022/05/30 00:25:50;;;;;;;3.42;0.70;;;8.30;99.90;;;;;;5029370;28;20038;-72
2022/05/30 00:28:16;;;;;;;4.47;0.60;;;8.30;99.90;;;;;;5031731;28;20397;-71
2022/05/30 00:30:44;;;;;;;5.18;0.57;;;8.30;99.90;;;;;;5026451;28;20049;-71
2022/05/30 00:33:11;;;;;;;5.43;0.85;;;8.30;99.90;;;;;;5022098;28;20034;-71
2022/05/30 00:35:37;;;;;;;2.72;1.00;;;8.20;99.90;;;;;;5030574;28;20033;-71
2022/05/30 00:38:03;;;;;;;9.35;1.10;;;8.20;99.90;;;;;;5031189;28;20187;-71
2022/05/30 00:40:29;;;;;;;4.78;1.02;;;8.20;99.90;;;;;;5028297;28;20504;-71
2022/05/30 00:42:54;;;;;;;8.27;1.25;;;8.20;99.90;;;;;;5030634;28;20041;-71
2022/05/30 00:45:20;;;;;;;4.78;0.70;;;8.20;99.90;;;;;;5032052;28;20057;-71
2022/05/30 00:47:46;;;;;;;3.22;0.47;;;8.10;99.90;;;;;;5026882;28;20385;-71
2022/05/30 00:50:12;;;;;;;6.90;1.17;;;8.10;99.90;;;;;;5031810;28;20037;-70
2022/05/30 00:52:41;;;;;;;4.93;0.73;;;8.10;99.90;;;;;;5031448;28;20040;-71
2022/05/30 00:55:14;;;;;;;3.67;0.70;;;8.00;99.90;;;;;;5031653;28;20061;-70
2022/05/30 00:57:41;;;;;;;2.50;0.45;;;8.00;99.90;;;;;;5030071;28;20167;-71
2022/05/30 01:00:12;;;;;;;3.50;0.73;;;8.00;99.90;;;;;;5023098;28;20029;-70
2022/05/30 01:02:39;;;;;;;2.63;0.50;;;8.00;99.90;;;;;;5025544;28;20110;-70
2022/05/30 01:07:57;;;;;;;6.82;1.75;;;7.90;99.90;;;;;;5025451;28;20052;-70
2022/05/30 01:10:23;;;;;;;4.45;1.10;;;7.90;99.90;;;;;;5031349;28;20405;-70
2022/05/30 01:12:52;;;;;;;3.90;1.10;;;7.90;99.90;;;;;;5030033;28;20030;-72
2022/05/30 01:15:24;;;;;;;4.60;1.17;;;7.80;99.90;;;;;;5029972;28;20033;-71
2022/05/30 01:18:04;;;;;;;6.38;1.25;;;7.80;99.90;;;;;;5028684;28;20033;-70
2022/05/30 01:20:50;;;;;;;9.68;1.00;;;7.80;99.90;;;;;;5030440;28;20040;-70
2022/05/30 01:23:39;;;;;;;3.28;0.88;;;7.80;99.90;;;;;;5019623;28;20049;-71
2022/05/30 01:26:11;;;;;;;5.25;1.00;;;7.80;99.90;;;;;;5026532;28;20060;-71
2022/05/30 01:28:53;;;;;;;3.22;0.60;;;7.80;99.90;;;;;;5031753;28;20049;-70
2022/05/30 01:31:18;;;;;;;6.78;1.05;;;7.80;99.90;;;;;;5031839;28;20508;-71
2022/05/30 01:33:44;;;;;;;4.78;0.70;;;7.80;99.90;;;;;;5029004;28;20046;-69
2022/05/30 01:36:10;;;;;;;3.20;0.77;;;7.80;99.90;;;;;;5032192;28;20042;-71
2022/05/30 01:38:36;;;;;;;6.28;0.95;;;7.80;99.90;;;;;;5031033;28;20525;-71
2022/05/30 01:41:02;;;;;;;5.70;0.90;;;7.80;99.90;;;;;;5030279;28;20168;-71
2022/05/30 01:43:28;;;;;;;3.25;0.77;;;7.80;99.90;;;;;;5030744;28;20029;-70
2022/05/30 01:45:54;;;;;;;6.28;1.67;;;7.80;99.90;;;;;;5029790;28;20057;-71
2022/05/30 01:48:19;;;;;;;7.10;1.63;;;7.70;99.90;;;;;;5031176;28;20044;-71
2022/05/30 01:50:45;;;;;;;11.52;1.60;;;7.80;99.90;;;;;;5028579;28;20497;-72
2022/05/30 01:53:12;;;;;;;4.18;0.95;;;7.80;99.90;;;;;;5030866;28;20036;-70
2022/05/30 01:55:37;;;;;;;3.38;1.13;;;7.80;99.90;;;;;;5030927;28;20033;-71
2022/05/30 01:58:04;;;;;;;3.22;1.00;;;7.80;99.90;;;;;;5030218;28;20168;-71
2022/05/30 02:00:30;;;;;;;7.63;1.20;;;7.80;99.90;;;;;;5025485;28;20505;-70
2022/05/30 02:02:56;;;;;;;6.85;1.45;;;7.80;99.90;;;;;;5030411;28;20034;-71
2022/05/30 02:05:22;;;;;;;6.82;1.00;;;7.80;99.90;;;;;;5031116;28;20124;-71
2022/05/30 02:07:47;;;;;;;5.57;1.50;;;7.80;99.90;;;;;;5029520;28;20041;-71
2022/05/30 02:10:13;;;;;;;5.22;1.20;;;7.80;99.90;;;;;;5037424;28;20034;-70
2022/05/30 02:12:39;;;;;;;6.97;1.17;;;7.70;99.90;;;;;;5003473;28;20038;-71
2022/05/30 02:15:05;;;;;;;3.95;1.25;;;7.70;99.90;;;;;;5040799;28;20029;-71
2022/05/30 02:17:35;;;;;;;5.45;1.55;;;7.70;99.90;;;;;;5036325;28;20035;-71
2022/05/30 02:20:00;;;;;;;12.50;1.73;;;7.70;99.90;;;;;;5032546;28;20468;-71
2022/05/30 02:22:29;;;;;;;4.80;1.30;;;7.70;99.90;;;;;;5030799;28;20026;-71
2022/05/30 02:24:56;;;;;;;5.55;1.60;;;7.70;99.90;;;;;;5028779;28;20037;-71
2022/05/30 02:27:22;;;;;;;9.07;2.03;;;7.70;99.90;;;;;;5031417;28;20562;-71
2022/05/30 02:29:48;;;;;;;7.80;1.70;;;7.70;99.90;;;;;;5031095;28;20030;-71
2022/05/30 02:32:14;;;;;;;6.03;1.70;;;7.70;99.90;;;;;;5031573;28;20044;-70
2022/05/30 02:37:25;;;;;;;5.03;1.35;;;7.80;99.90;;;;;;5022374;28;20128;-71
2022/05/30 02:39:51;;;;;;;5.70;2.00;;;7.80;99.90;;;;;;5029838;28;20874;-72
2022/05/30 02:42:16;;;;;;;4.20;1.63;;;7.90;99.90;;;;;;5030999;28;20116;-71
2022/05/30 02:44:44;;;;;;;4.50;1.58;;;7.90;99.90;;;;;;5028479;28;20065;-71
2022/05/30 02:47:09;;;;;;;7.55;2.03;;;8.00;99.90;;;;;;5029486;28;20485;-71
2022/05/30 02:49:35;;;;;;;6.78;1.92;;;8.00;99.90;;;;;;5028605;28;20043;-71
2022/05/30 02:52:01;;;;;;;7.18;1.90;;;8.00;99.90;;;;;;5031167;28;20037;-71
2022/05/30 02:54:26;;;;;;;3.45;1.35;;;8.10;99.90;;;;;;5031085;28;20026;-72
2022/05/30 02:56:54;;;;;;;9.30;1.80;;;8.10;99.90;;;;;;5031189;28;20140;-71
2022/05/30 02:59:21;;;;;;;6.82;1.60;;;8.20;99.90;;;;;;5030961;28;20033;-71
2022/05/30 03:01:48;;;;;;;6.10;1.40;;;8.20;99.90;;;;;;5030131;28;20110;-70
2022/05/30 03:04:15;;;;;;;6.20;1.67;;;8.20;99.90;;;;;;5028768;28;20029;-70
2022/05/30 03:06:41;;;;;;;4.22;1.50;;;8.30;99.90;;;;;;5030559;28;20407;-71
2022/05/30 03:09:07;;;;;;;9.02;1.65;;;8.30;99.90;;;;;;5028986;28;20037;-71
2022/05/30 03:11:33;;;;;;;4.28;1.60;;;8.30;99.90;;;;;;5030668;28;20033;-72
2022/05/30 03:13:59;;;;;;;4.10;1.90;;;8.30;99.90;;;;;;5029974;28;20033;-72
2022/05/30 03:16:24;;;;;;;9.02;2.00;;;8.30;99.90;;;;;;5029821;28;20458;-71
2022/05/30 03:18:50;;;;;;;3.35;1.58;;;8.20;99.90;;;;;;5029955;28;20493;-71
2022/05/30 03:21:16;;;;;;;3.78;1.40;;;8.20;99.90;;;;;;5031055;28;20064;-72
2022/05/30 03:23:42;;;;;;;4.60;1.10;;;8.20;99.90;;;;;;5029256;28;20088;-71
2022/05/30 03:26:08;;;;;;;6.72;1.20;;;8.10;99.90;;;;;;5027873;28;20095;-71
2022/05/30 03:28:34;;;;;;;4.13;1.98;;;8.00;99.90;;;;;;5029057;28;20048;-71
2022/05/30 03:31:01;;;;;;;5.15;1.85;;;7.90;99.90;;;;;;5030385;28;20111;-71
2022/05/30 03:33:28;;;;;;;6.95;1.60;;;7.90;99.90;;;;;;5030455;28;20037;-71
2022/05/30 03:35:54;;;;;;;4.40;1.48;;;7.80;99.90;;;;;;5030245;28;20417;-71
2022/05/30 03:38:19;;;;;;;7.60;1.45;;;7.80;99.90;;;;;;5030873;28;20033;-71
2022/05/30 03:40:45;;;;;;;5.68;1.70;;;7.70;99.90;;;;;;5030004;28;20823;-71
2022/05/30 03:43:11;;;;;;;7.78;1.52;;;7.70;99.90;;;;;;5031376;28;20040;-71
2022/05/30 03:45:39;;;;;;;7.95;1.73;;;7.60;99.90;;;;;;5030555;28;20093;-71
2022/05/30 03:48:05;;;;;;;4.65;1.48;;;7.60;99.90;;;;;;5020997;28;20041;-71
2022/05/30 03:50:32;;;;;;;10.07;1.98;;;7.60;99.90;;;;;;5030418;28;20034;-71
2022/05/30 03:53:05;;;;;;;8.80;2.45;;;7.60;99.90;;;;;;5030213;28;20115;-71
2022/05/30 03:55:36;;;;;;;8.70;2.10;;;7.60;99.90;;;;;;5031271;28;20502;-71
2022/05/30 03:58:04;;;;;;;5.28;1.77;;;7.50;99.90;;;;;;5031330;28;20033;-70
2022/05/30 04:00:30;;;;;;;4.22;1.92;;;7.50;99.90;;;;;;5030917;28;20061;-72
2022/05/30 04:02:55;;;;;;;5.32;1.67;;;7.50;99.90;;;;;;5030340;28;20044;-71
2022/05/30 04:05:21;;;;;;;7.25;1.83;;;7.50;99.90;;;;;;5030814;28;20045;-71
2022/05/30 04:07:47;;;;;;;6.22;1.50;;;7.50;99.90;;;;;;5030386;28;20040;-71
2022/05/30 04:10:12;;;;;;;3.97;1.65;;;7.50;99.90;;;;;;5031391;28;20040;-71
2022/05/30 04:12:38;;;;;;;6.45;1.95;;;7.50;99.90;;;;;;5029188;28;20565;-71
2022/05/30 04:15:07;;;;;;;9.48;2.13;;;7.50;99.90;;;;;;5030722;28;20121;-71
2022/05/30 04:17:35;;;;;;;4.70;1.42;;;7.50;99.90;;;;;;5022308;28;20467;-71
2022/05/30 04:20:00;;;;;;;5.72;2.17;;;7.50;99.90;;;;;;5030718;28;20036;-71
2022/05/30 04:22:26;;;;;;;5.93;1.48;;;7.50;99.90;;;;;;5030781;28;20041;-71
2022/05/30 04:24:52;;;;;;;6.47;2.22;;;7.50;99.90;;;;;;5029351;28;20368;-71
2022/05/30 04:27:18;;;;;;;9.98;2.40;;;7.60;99.90;;;;;;5030448;28;20026;-71
2022/05/30 04:29:43;;;;;;;6.18;2.05;;;7.60;99.90;;;;;;5031283;28;20036;-72
2022/05/30 04:32:09;;;;;;;4.50;1.98;;;7.60;99.90;;;;;;5016812;28;20037;-72
2022/05/30 04:34:36;;;;;;;6.63;1.70;;;7.60;99.90;;;;;;5018936;28;20026;-71
2022/05/30 04:37:03;;;;;;;5.20;1.73;;;7.70;99.90;;;;;;5026407;28;20860;-71
2022/05/30 04:39:29;;;;;;;10.20;2.80;;;7.70;99.90;;;;;;5015353;28;20022;-71
2022/05/30 04:41:55;;;;;;;3.30;1.98;;;7.70;99.90;;;;;;5021289;28;20034;-70
2022/05/30 04:44:21;;;;;;;8.00;1.92;;;7.70;99.90;;;;;;5022894;28;20405;-71
2022/05/30 04:46:51;;;;;;;6.80;1.52;;;7.80;99.90;;;;;;5020962;28;20030;-71
2022/05/30 04:49:17;;;;;;;;;;;7.80;99.90;;;;;;5032889;28;20041;-70
2022/05/30 04:51:42;;;;;;;5.03;1.80;;;7.80;99.90;;;;;;5009917;28;19918;-70
2022/05/30 04:54:08;;;;;;;4.07;1.48;;;7.80;99.90;;;;;;5021190;28;20038;-70
2022/05/30 04:56:33;;;;;;;3.38;1.52;;;7.90;99.90;;;;;;5023125;28;20068;-72
2022/05/30 04:58:59;;;;;;;13.77;2.90;;;7.90;99.90;;;;;;5019776;28;20059;-71
2022/05/30 05:01:27;;;;;;;5.47;1.73;;;7.90;99.90;;;;;;5019606;28;20494;-71
2022/05/30 05:03:52;;;;;;;7.43;2.25;;;8.00;99.90;;;;;;5015472;28;20402;-71
2022/05/30 05:06:19;;;;;;;6.05;1.70;;;8.10;99.90;;;;;;5019253;28;20037;-72
2022/05/30 05:08:51;;;;;;;8.75;2.00;;;8.20;99.90;;;;;;5015430;28;20098;-71
2022/05/30 05:11:17;;;;;;;5.95;2.53;;;8.20;99.90;;;;;;5019825;28;20037;-71
2022/05/30 05:13:43;;;;;;;4.93;1.40;;;8.40;99.90;;;;;;5016797;28;20037;-71
2022/05/30 05:16:09;;;;;;;3.33;1.70;;;8.40;99.90;;;;;;5020882;28;20026;-70
2022/05/30 05:18:35;;;;;;;4.75;1.58;;;8.40;99.90;;;;;;5017332;28;20033;-71
2022/05/30 05:21:01;;;;;;;4.60;1.50;;;8.40;99.90;;;;;;5015081;28;20041;-71
2022/05/30 05:23:26;;;;;;;3.35;1.38;;;8.50;99.90;;;;;;5018141;28;20033;-71
2022/05/30 05:25:52;;;;;;;3.25;1.40;;;8.60;99.90;;;;;;5019927;28;20050;-70
2022/05/30 05:28:18;;;;;;;3.47;1.73;;;8.60;99.90;;;;;;5018220;28;20109;-71
2022/05/30 05:30:43;;;;;;;4.70;1.63;;;8.70;99.90;;;;;;5022968;28;20034;-71
2022/05/30 05:33:10;;;;;;;5.68;2.00;;;8.80;99.90;;;;;;5022021;28;20169;-71
2022/05/30 05:35:44;;;;;;;4.00;1.52;;;8.90;99.90;;;;;;5018335;28;20040;-71
2022/05/30 05:38:09;;;;;;;3.22;1.15;;;9.20;99.90;;;;;;5017681;28;20068;-71
2022/05/30 05:40:39;;;;;;;9.15;1.52;;;9.50;99.90;;;;;;5021550;28;20037;-70
2022/05/30 05:43:07;;;;;;;2.97;1.20;;;9.90;99.90;;;;;;5019965;28;20648;-70
2022/05/30 05:45:37;;;;;;;3.35;0.93;;;10.30;99.90;;;;;;5025858;28;20068;-71
2022/05/30 05:48:03;;;;;;;3.63;0.95;;;10.70;99.90;;;;;;5017481;28;20041;-70
2022/05/30 05:50:29;;;;;;;2.40;0.90;;;11.20;99.90;;;;;;5014652;28;20041;-71
2022/05/30 05:52:55;;;;;;;5.28;1.23;;;11.70;99.90;;;;;;5010943;28;20112;-72
2022/05/30 05:55:21;;;;;;;6.55;1.40;;;12.30;99.90;;;;;;5015870;28;20041;-70
2022/05/30 05:57:47;;;;;;;2.67;0.60;;;12.70;99.90;;;;;;5012790;28;20105;-71
2022/05/30 06:00:14;;;;;;;3.53;0.73;;;13.10;99.90;;;;;;5017594;28;20482;-71
2022/05/30 06:02:40;;;;;;;5.65;1.55;;;13.40;99.90;;;;;;5016400;28;20033;-70
2022/05/30 06:05:08;;;;;;;6.28;0.70;;;13.50;99.90;;;;;;5016140;28;20037;-71
2022/05/30 06:07:35;;;;;;;3.63;0.88;;;13.80;99.90;;;;;;5015855;28;20037;-69
2022/05/30 06:10:01;;;;;;;1.70;0.40;;;14.10;99.90;;;;;;5032354;28;20033;-70
2022/05/30 06:12:26;;;;;;;7.65;0.90;;;14.30;99.90;;;;;;5035092;28;20021;-71
2022/05/30 06:14:52;;;;;;;2.20;0.55;;;14.50;99.90;;;;;;5049840;28;20025;-71
2022/05/30 06:17:17;;;;;;;5.45;0.70;;;14.70;99.90;;;;;;5046984;28;20049;-71
2022/05/30 06:19:45;;;;;;;3.65;0.50;;;14.90;99.90;;;;;;5049136;28;20603;-71
2022/05/30 06:22:10;;;;;;;2.88;0.70;;;15.00;99.90;;;;;;5050764;28;20037;-71
2022/05/30 06:24:36;;;;;;;3.05;0.50;;;15.20;99.90;;;;;;5043584;28;20156;-71
2022/05/30 06:27:03;;;;;;;3.03;0.57;;;15.40;99.90;;;;;;5032157;28;20121;-70
2022/05/30 06:29:29;;;;;;;1.25;0.47;;;15.80;99.90;;;;;;5029425;28;20030;-71
2022/05/30 06:31:54;;;;;;;1.95;0.32;;;16.00;99.90;;;;;;5019723;28;20033;-70
2022/05/30 06:34:20;;;;;;;1.95;0.52;;;16.40;99.90;;;;;;5024770;28;20030;-71
2022/05/30 06:36:45;;;;;;;3.15;0.75;;;17.30;99.90;;;;;;5023264;28;20072;-71
2022/05/30 06:39:11;;;;;;;2.33;0.35;;;18.20;99.90;;;;;;5028131;28;20080;-75
2022/05/30 06:41:37;;;;;;;2.88;0.80;;;19.10;98.90;;;;;;5028086;28;20041;-71
2022/05/30 06:44:06;;;;;;;5.28;0.88;;;20.00;97.90;;;;;;5028681;28;20044;-73
2022/05/30 06:46:34;;;;;;;2.72;0.63;;;20.30;96.80;;;;;;5028646;28;20501;-71
2022/05/30 06:49:00;;;;;;;3.22;0.63;;;20.70;96.30;;;;;;5028487;28;21515;-72
2022/05/30 06:51:28;;;;;;;1.90;0.73;;;21.20;93.70;;;;;;5029425;28;20040;-72
2022/05/30 06:53:54;;;;;;;3.25;0.93;;;21.90;92.60;;;;;;5020013;28;20116;-72
2022/05/30 06:56:23;;;;;;;1.83;0.60;;;21.70;90.50;;;;;;5028847;28;20210;-71
2022/05/30 06:58:50;;;;;;;3.58;1.13;;;21.30;92.80;;;;;;5028100;28;20037;-72
2022/05/30 07:01:21;;;;;;;2.90;0.73;;;21.20;92.00;;;;;;5027501;28;20044;-72
2022/05/30 07:03:47;;;;;;;13.55;0.73;;;20.50;91.40;;;;;;5028016;28;20405;-72
2022/05/30 07:06:18;;;;;;;5.07;0.63;;;19.50;93.30;;;;;;5024706;28;20037;-72
2022/05/30 07:08:46;;;;;;;3.40;0.65;;;19.80;93.40;;;;;;5027322;28;20130;-70
2022/05/30 07:11:13;;;;;;;3.53;0.77;;;20.30;91.90;;;;;;5027793;28;20049;-71
2022/05/30 07:13:38;;;;;;;1.50;0.40;;;20.70;93.20;;;;;;5025370;28;20030;-71
2022/05/30 07:16:04;;;;;;;3.15;0.40;;;21.30;92.00;;;;;;5026759;28;20044;-70
2022/05/30 07:18:30;;;;;;;4.25;0.50;;;22.20;91.60;;;;;;5028594;28;20103;-71
2022/05/30 07:21:01;;;;;;;3.63;0.85;;;22.60;88.60;;;;;;5027569;28;20096;-71
2022/05/30 07:23:28;;;;;;;2.88;0.35;;;22.90;83.70;;;;;;5021804;28;20107;-71
2022/05/30 07:25:58;;;;;;;2.47;0.43;;;22.00;85.80;;;;;;5023900;28;20076;-71
2022/05/30 07:28:28;;;;;;;1.15;0.20;;;21.00;85.40;;;;;;5020667;28;20041;-71
2022/05/30 07:31:10;;;;;;;4.68;0.73;;;19.70;86.30;;;;;;5020278;28;20034;-71
2022/05/30 07:33:38;;;;;;;2.03;0.40;;;18.50;88.90;;;;;;5023314;28;20037;-71
2022/05/30 07:36:08;;;;;;;2.78;0.55;;;17.30;90.80;;;;;;5027616;28;20568;-70
2022/05/30 07:38:35;;;;;;;2.72;0.45;;;17.20;93.60;;;;;;5027160;28;20037;-71
2022/05/30 07:41:00;;;;;;;2.03;0.73;;;18.40;93.10;;;;;;5025652;28;20037;-71
2022/05/30 07:43:26;;;;;;;2.10;0.45;;;19.80;90.10;;;;;;5028203;28;20039;-71
2022/05/30 07:45:52;;;;;;;2.72;0.70;;;21.40;86.70;;;;;;5027301;28;20390;-71
2022/05/30 07:48:19;;;;;;;6.50;0.70;;;22.60;83.60;;;;;;5027807;28;20203;-71
2022/05/30 07:50:45;;;;;;;6.53;1.00;;;24.20;80.00;;;;;;5027547;28;20042;-71
2022/05/30 07:53:11;;;;;;;3.00;0.38;;;24.30;78.30;;;;;;5027979;28;20390;-72
2022/05/30 07:55:39;;;;;;;2.22;0.55;;;23.80;77.60;;;;;;5027649;28;20029;-72
2022/05/30 07:58:05;;;;;;;2.63;0.80;;;22.70;77.30;;;;;;5025845;28;20041;-71
2022/05/30 08:00:33;;;;;;;2.92;0.68;;;21.60;79.70;;;;;;5027668;28;20421;-71
2022/05/30 08:02:59;;;;;;;2.75;0.52;;;20.30;78.00;;;;;;5025483;28;20049;-71
2022/05/30 08:05:25;;;;;;;2.42;0.45;;;19.20;81.70;;;;;;5027733;28;20037;-71
2022/05/30 08:07:52;;;;;;;3.47;0.60;;;17.90;84.70;;;;;;5025097;28;20046;-71
2022/05/30 08:10:19;;;;;;;1.40;0.47;;;17.10;88.10;;;;;;5027989;28;20033;-71
2022/05/30 08:12:46;;;;;;;2.28;0.50;;;16.50;90.90;;;;;;5022601;28;20116;-71
2022/05/30 08:15:12;;;;;;;7.22;0.43;;;16.10;92.20;;;;;;5028867;28;20032;-71
2022/05/30 08:17:38;;;;;;;4.05;0.68;;;15.60;93.10;;;;;;5032264;28;20040;-71
2022/05/30 08:20:05;;;;;;;3.60;0.38;;;15.40;94.40;;;;;;5032014;28;20029;-71
2022/05/30 08:22:35;;;;;;;1.25;0.28;;;15.10;95.10;;;;;;5030957;28;20053;-71
2022/05/30 08:25:03;;;;;;;6.05;0.45;;;14.80;96.00;;;;;;5025908;28;20037;-71
2022/05/30 08:27:29;;;;;;;2.22;0.50;;;14.50;97.90;;;;;;5027783;28;20087;-71
2022/05/30 08:29:54;;;;;;;3.40;0.40;;;14.40;97.60;;;;;;5031446;28;20033;-71
2022/05/30 08:32:20;;;;;;;2.33;0.40;;;14.40;97.40;;;;;;5032347;28;20501;-71
2022/05/30 08:34:46;;;;;;;0.77;0.20;;;14.40;97.80;;;;;;5029586;28;20049;-71
2022/05/30 08:37:11;;;;;;;2.40;0.20;;;14.30;96.60;;;;;;5027129;28;20033;-71
2022/05/30 08:42:27;;;;;;;7.03;0.32;;;14.50;96.20;;;;;;5024598;28;20087;-70
2022/05/30 08:44:53;;;;;;;3.15;0.55;;;14.50;95.70;;;;;;5030981;28;20053;-71
2022/05/30 08:47:30;;;;;;;4.50;0.75;;;14.60;95.80;;;;;;5031198;28;20076;-70
2022/05/30 08:50:08;;;;;;;1.15;0.10;;;14.60;96.30;;;;;;5025678;28;20029;-70
2022/05/30 08:52:56;;;;;;;4.68;0.30;;;14.80;96.70;;;;;;5031391;28;20057;-71
2022/05/30 08:55:40;;;;;;;3.80;0.50;;;14.80;97.20;;;;;;5024671;28;20084;-71
2022/05/30 08:58:43;;;;;;;4.57;0.20;;;14.90;96.60;;;;;;5029470;28;20033;-71
2022/05/30 09:01:21;;;;;;;3.70;0.32;;;15.10;97.40;;;;;;5029336;28;20041;-72
2022/05/30 09:04:16;;;;;;;4.00;0.75;;;15.40;97.10;;;;;;5022543;28;20026;-71
2022/05/30 09:06:53;;;;;;;3.80;0.22;;;15.80;97.20;;;;;;5029880;28;20064;-71
2022/05/30 09:09:48;;;;;;;3.45;0.20;;;16.50;96.80;;;;;;5031579;28;20030;-71
2022/05/30 09:12:27;;;;;;;0.45;0.10;;;17.20;95.30;;;;;;5030799;28;20151;-72
2022/05/30 09:15:08;;;;;;;2.50;0.10;;;17.60;94.20;;;;;;5023900;28;20486;-71
2022/05/30 09:17:47;;;;;;;1.85;0.28;;;17.80;92.30;;;;;;5030320;28;20638;-71
2022/05/30 09:20:16;;;;;;;1.17;0.10;;;17.90;92.70;;;;;;5030446;28;20030;-71
2022/05/30 09:22:42;;;;;;;0.57;0.10;;;17.50;92.00;;;;;;5030239;28;20585;-71
2022/05/30 09:28:06;;;;;;;1.70;0.10;;;16.60;94.10;;;;;;5027879;28;20087;-72
2022/05/30 09:30:56;;;;;;;3.25;0.20;;;16.10;94.80;;;;;;5031692;28;20049;-71
2022/05/30 09:33:30;;;;;;;;;;;15.90;95.50;;;;;;5011055;28;20120;-71
2022/05/30 09:36:19;;;;;;;3.35;0.10;;;15.50;95.80;;;;;;5030117;28;20309;-71
2022/05/30 09:38:48;;;;;;;0.40;0.10;;;15.40;96.60;;;;;;5022542;28;20082;-71
2022/05/30 09:41:35;;;;;;;3.25;0.10;;;15.30;96.80;;;;;;5019932;28;20049;-72
2022/05/30 09:44:04;;;;;;;0.50;0.13;;;15.30;96.70;;;;;;5025033;28;20033;-71
2022/05/30 09:46:35;;;;;;;1.70;0.20;;;15.20;96.60;;;;;;5030218;28;20025;-71
2022/05/30 09:49:06;;;;;;;2.20;0.10;;;15.30;97.00;;;;;;5027968;28;24975;-70
2022/05/30 09:51:39;;;;;;;1.02;0.13;;;15.30;96.20;;;;;;5030812;28;20099;-71
2022/05/30 09:54:09;;;;;;;1.30;0.38;;;15.10;97.10;;;;;;5030187;28;20064;-70
2022/05/30 09:56:40;;;;;;;1.90;0.30;;;15.10;96.80;;;;;;5031018;28;20033;-70
2022/05/30 09:59:26;;;;;;;3.80;0.30;;;15.10;97.00;;;;;;5029343;28;20029;-70
2022/05/30 10:01:53;;;;;;;0.40;0.15;;;15.10;96.20;;;;;;5024609;28;20052;-71
2022/05/30 10:04:34;;;;;;;0.60;0.10;;;15.10;96.10;;;;;;5030158;28;20038;-71
2022/05/30 10:07:10;;;;;;;1.45;0.10;;;15.00;97.10;;;;;;5029584;28;20038;-70
2022/05/30 10:09:41;;;;;;;2.72;0.40;;;15.00;96.50;;;;;;5028662;28;20037;-71
2022/05/30 10:12:08;;;;;;;2.85;0.17;;;15.10;96.70;;;;;;5029926;28;20091;-71
2022/05/30 10:14:35;;;;;;;3.30;0.50;;;15.10;96.80;;;;;;5030182;28;20120;-71
2022/05/30 10:17:31;;;;;;;3.90;0.10;;;15.20;96.50;;;;;;5027525;28;20076;-71
2022/05/30 10:19:58;;;;;;;0.10;0.00;;;15.30;96.90;;;;;;5023185;28;20041;-70
2022/05/30 10:28:50;;;;;;;0.10;0.00;;;15.40;95.30;;;;;;5028165;28;20564;-71
2022/05/30 10:32:05;;;;;;;1.00;0.20;;;15.40;95.20;;;;;;5023102;28;20034;-71
2022/05/30 10:35:07;;;;;;;0.32;0.10;;;15.50;95.10;;;;;;5002937;28;20136;-71
2022/05/30 10:38:10;;;;;;;1.77;0.10;;;15.60;95.60;;;;;;5027247;28;20037;-71
2022/05/30 10:40:51;;;;;;;1.80;0.10;;;15.70;94.80;;;;;;5026868;28;20489;-71
2022/05/30 10:43:26;;;;;;;0.20;0.00;;;15.80;95.40;;;;;;5021416;28;20030;-70
2022/05/30 10:46:08;;;;;;;1.92;0.63;;;15.80;94.60;;;;;;5029002;28;20457;-71
2022/05/30 10:48:39;;;;;;;0.10;0.00;;;15.90;93.70;;;;;;5029815;28;20033;-70
2022/05/30 10:51:11;;;;;;;1.30;0.20;;;15.90;93.20;;;;;;5029055;28;20091;-71
2022/05/30 10:53:51;;;;;;;1.88;0.47;;;16.10;94.50;;;;;;5029400;28;20558;-71
2022/05/30 10:56:39;;;;;;;1.48;0.10;;;16.30;93.30;;;;;;5021903;28;20037;-70
2022/05/30 10:59:29;;;;;;;0.80;0.10;;;16.50;94.30;;;;;;5027448;28;20037;-70
2022/05/30 11:01:59;;;;;;;1.58;0.10;;;16.70;93.20;;;;;;5024997;28;20065;-71
2022/05/30 11:04:49;;;;;;;1.80;0.43;;;17.00;92.80;;;;;;5028843;28;20033;-69
2022/05/30 11:07:37;;;;;;;1.13;0.20;;;17.00;92.30;;;;;;5022071;28;20045;-70
2022/05/30 11:10:40;;;;;;;2.20;0.28;;;17.30;92.80;;;;;;5025674;28;21397;-70
2022/05/30 11:13:50;;;;;;;1.65;0.20;;;17.50;91.70;;;;;;5026748;28;20511;-71
2022/05/30 11:16:47;;;;;;;0.30;0.10;;;17.50;91.90;;;;;;5021090;28;20045;-70
2022/05/30 11:19:24;;;;;;;5.03;0.43;;;17.60;92.70;;;;;;5022288;28;20567;-70
2022/05/30 11:21:52;;;;;;;0.60;0.13;;;17.60;93.00;;;;;;5028491;28;20497;-70
2022/05/30 11:24:18;;;;;;;0.65;0.30;;;17.50;92.50;;;;;;5029253;28;20083;-70
2022/05/30 11:27:13;;;;;;;2.08;0.10;;;17.50;92.40;;;;;;5026685;28;20022;-69
2022/05/30 11:30:00;;;;;;;3.13;0.20;;;17.40;92.80;;;;;;5029741;28;20072;-70
2022/05/30 11:32:38;;;;;;;2.50;0.20;;;17.20;93.60;;;;;;5025634;28;20117;-70
2022/05/30 11:35:31;;;;;;;2.40;0.63;;;16.90;93.10;;;;;;5029041;28;20064;-70
2022/05/30 11:38:16;;;;;;;1.67;0.10;;;16.70;93.70;;;;;;5043187;28;20057;-71
2022/05/30 11:40:55;;;;;;;0.17;0.05;;;16.70;93.60;;;;;;5026053;28;20148;-71
2022/05/30 11:43:45;;;;;;;0.22;0.10;;;16.70;94.00;;;;;;5044133;28;20033;-71
2022/05/30 11:46:17;;;;;;;2.65;0.30;;;16.70;93.60;;;;;;5020916;28;20037;-70
2022/05/30 11:49:01;;;;;;;0.25;0.20;;;16.50;93.60;;;;;;5027409;28;20061;-70
2022/05/30 11:51:41;;;;;;;1.67;0.30;;;16.40;94.10;;;;;;5033798;28;20088;-71
2022/05/30 11:54:48;;;;;;;2.28;0.57;;;16.30;93.60;;;;;;5023866;28;20654;-71
2022/05/30 11:57:32;;;;;;;0.52;0.10;;;16.30;94.60;;;;;;4954986;28;20039;-70
2022/05/30 12:00:24;;;;;;;2.50;0.43;;;16.40;95.00;;;;;;5029287;28;20128;-70
2022/05/30 12:03:29;;;;;;;0.85;0.10;;;16.60;94.10;;;;;;5030145;28;20029;-70
2022/05/30 12:06:16;;;;;;;2.30;0.43;;;16.80;94.80;;;;;;5029008;28;20128;-70
2022/05/30 12:09:36;;;;;;;4.07;0.60;;;16.80;93.50;;;;;;5024494;28;20045;-72
2022/05/30 12:12:32;;;;;;;3.20;0.52;;;17.10;94.20;;;;;;4980843;28;20502;-70
2022/05/30 12:15:31;;;;;;;1.27;0.52;;;17.20;93.30;;;;;;5028877;28;20624;-71
2022/05/30 12:24:14;;;;;;;0.75;0.13;;;17.70;92.80;;;;;;5030278;28;20516;-71
2022/05/30 12:26:55;;;;;;;6.32;0.90;;;17.70;92.60;;;;;;5026900;28;20025;-70
2022/05/30 12:29:30;;;;;;;1.73;0.30;;;17.70;92.20;;;;;;5031671;28;20395;-70
2022/05/30 12:32:16;;;;;;;2.42;0.30;;;17.70;92.70;;;;;;5023904;28;20039;-70
2022/05/30 12:35:00;;;;;;;2.40;0.10;;;17.70;92.60;;;;;;5026352;28;20135;-70
2022/05/30 12:37:44;;;;;;;3.63;0.30;;;17.70;93.30;;;;;;5027589;28;20128;-70
2022/05/30 12:40:19;;;;;;;1.17;0.13;;;17.70;92.50;;;;;;5023517;28;20041;-71
2022/05/30 12:42:45;;;;;;;1.15;0.20;;;17.50;92.60;;;;;;5029367;28;20497;-71
2022/05/30 12:45:22;;;;;;;1.17;0.20;;;17.50;93.70;;;;;;5031942;28;20033;-69
2022/05/30 12:47:54;;;;;;;1.60;0.70;;;17.30;93.70;;;;;;5030659;28;20613;-70
2022/05/30 12:50:35;;;;;;;4.03;0.25;;;17.20;92.70;;;;;;5030718;28;20037;-71
2022/05/30 12:53:05;;;;;;;1.65;0.25;;;17.40;93.30;;;;;;5029114;28;20128;-71
2022/05/30 12:55:45;;;;;;;0.93;0.13;;;17.40;92.80;;;;;;5032082;28;20086;-70
2022/05/30 12:58:19;;;;;;;2.38;0.22;;;17.20;92.50;;;;;;5025599;28;20112;-70
2022/05/30 13:00:46;;;;;;;0.30;0.10;;;17.10;92.80;;;;;;5030037;28;20030;-70
2022/05/30 13:03:12;;;;;;;2.38;0.38;;;17.10;93.30;;;;;;5031744;28;20053;-70
2022/05/30 13:05:40;;;;;;;1.92;0.45;;;17.10;93.50;;;;;;5030405;28;20115;-71
2022/05/30 13:08:43;;;;;;;1.75;0.25;;;17.10;92.60;;;;;;5030786;28;20038;-71
2022/05/30 13:11:11;;;;;;;0.60;0.10;;;16.90;92.40;;;;;;5024851;28;20037;-69
2022/05/30 13:13:41;;;;;;;2.05;0.20;;;17.10;93.50;;;;;;5029916;28;20520;-70
2022/05/30 13:16:17;;;;;;;2.40;0.55;;;17.30;93.40;;;;;;5030465;28;20045;-71
2022/05/30 13:18:45;;;;;;;1.00;0.30;;;17.20;93.00;;;;;;5030428;28;20108;-71
2022/05/30 13:21:11;;;;;;;3.60;0.25;;;17.10;92.60;;;;;;5031604;28;20037;-70
2022/05/30 13:23:37;;;;;;;2.00;0.30;;;17.10;92.10;;;;;;5031011;28;20503;-70
2022/05/30 13:26:05;;;;;;;1.65;0.32;;;17.00;91.90;;;;;;5025493;28;20072;-71
2022/05/30 13:28:38;;;;;;;4.43;0.30;;;16.90;91.70;;;;;;5023600;28;20034;-70
2022/05/30 13:31:08;;;;;;;0.30;0.10;;;16.90;92.40;;;;;;5023688;28;20033;-70
2022/05/30 13:33:49;;;;;;;2.15;0.30;;;16.90;92.40;;;;;;5022625;28;20030;-70
2022/05/30 13:36:23;;;;;;;2.63;0.20;;;16.70;92.20;;;;;;5026501;28;20103;-69